Share

Martin, ND (58758)

10:45 AM CDT on April 23, 2014 (GMT -0500)
Harvey (K5H4) Elev 1608 ft | 47.79 °N, 99.93 °W | Change Station
Active Advisory: Wind Advisory

Current weather conditions updated 10 minutes ago

Overcast
Overcast
46 °F
Feels Like 37 °F
N
29
Wind Variable Wind from ESE
Gusts 37 mph
Sunrise 6:36 AM
Sunset 8:41 PM
Moon Waning Crescent

Today is forecast to be Much Cooler than yesterday. Windy with rain at times.

Pressure 29.65 in
Visibility 10.0 miles
Clouds Overcast 6000 ft
Windchill 37 °F
Dew Point 43 °F
Humidity 87%
Rainfall 0.02 in
Snow Depth Not available.
UV 2 out of 16
Pollen 8.40 out of 12
Air Quality Not available.
Flu Activity Sporadic
METAR K5H4 231535Z AUTO 12025G32KT 10SM OVC060 08/06 A2965 RMK AO2

More Conditions Fewer Conditions

Pressure 29.65 in
Visibility 10.0 miles
Clouds Overcast 6000 ft
Windchill 37 °F
Dew Point 43 °F
Humidity 87%
Rainfall 0.02 in
Snow Depth Not available.
UV 2 out of 16
Pollen 8.40 out of 12
Air Quality Not available.
Flu Activity Sporadic
METAR K5H4 231535Z AUTO 12025G32KT 10SM OVC060 08/06 A2965 RMK AO2

More Conditions Fewer Conditions

10-Day Weather Forecast

Almanac

Astronomy

Apr. 23, 2014 Rise Set
Actual Time 6:36 AM CDT 8:41 PM CDT
Civil Twilight 6:03 AM CDT 9:15 PM CDT
Nautical Twilight 5:22 AM CDT 9:56 PM CDT
Astronomical Twilight 4:36 AM CDT 10:43 PM CDT
Moon 3:36 AM CDT 2:27 PM CDT
Length of Visible Light 15h 11m
Length of Day
14h 05m
Tomorrow will be 3m 11s longer.
Waning Crescent, 35% of the Moon is Illuminated
Today
Waning Crescent
Apr 29
New
May 6
First Quarter
May 14
Full
May 21
Last Quarter

Today's Extremes

State Highs State Lows

Community

  • spring flowers
    spring flowers
  • Earth Day Spectrum Ove' Blue
    Earth Day Spectrum Ove' Blue
  • BARN B&W
    BARN B&W
  • April Sunset
    April Sunset
  • Waiting..
    Waiting..

WunderPhotos

Upload Photos

1,704,316 photos uploaded!

Nearby

Snow Depth

Station Depth Elevation
No new snow has been reported.

Coastal Water Temperatures

Place Temperature
No Stations Reporting

Earthquake Activity

City Distance Mag. Time & Date
No recent earthquake activity has been reported nearby.
Minimum magnitude displayed is 2.5.

Nearby Weather Stations

There are no personal weather stations in this area.

What do you think?

We're not finished. Please let us know what you like, what you don't like, and what you are still missing.